sensor_id;sensor_type;location;lat;lon;timestamp;P1;P4;P2;P0;N10;N4;N25;N1;N05;TS
79466;SPS30;68933;49.726;9.226;2024-01-30T00:00:05;14.1;;14.1;13.5;;;;;;
79466;SPS30;68933;49.726;9.226;2024-01-30T00:02:18;14.2;;14.2;13.5;;;;;;
79466;SPS30;68933;49.726;9.226;2024-01-30T00:04:31;14.2;;14.2;13.5;;;;;;
79466;SPS30;68933;49.726;9.226;2024-01-30T00:06:44;14.2;;14.2;13.5;;;;;;
79466;SPS30;68933;49.726;9.226;2024-01-30T00:08:57;14.2;;14.2;13.5;;;;;;
79466;SPS30;68933;49.726;9.226;2024-01-30T00:11:10;14.6;;14.6;13.9;;;;;;
79466;SPS30;68933;49.726;9.226;2024-01-30T00:13:23;14.6;;14.6;13.9;;;;;;
79466;SPS30;68933;49.726;9.226;2024-01-30T00:15:36;14.6;;14.6;13.9;;;;;;
79466;SPS30;68933;49.726;9.226;2024-01-30T00:17:49;13.6;;13.6;12.9;;;;;;
79466;SPS30;68933;49.726;9.226;2024-01-30T00:20:02;13.6;;13.6;12.9;;;;;;
79466;SPS30;68933;49.726;9.226;2024-01-30T00:22:15;13.7;;13.7;13;;;;;;
79466;SPS30;68933;49.726;9.226;2024-01-30T00:24:28;13.7;;13.7;13;;;;;;
79466;SPS30;68933;49.726;9.226;2024-01-30T00:27:43;13.7;;13.7;13;;;;;;
79466;SPS30;68933;49.726;9.226;2024-01-30T00:29:55;14.4;;14.4;13.7;;;;;;
79466;SPS30;68933;49.726;9.226;2024-01-30T00:32:08;15.5;;15.5;14.8;;;;;;
79466;SPS30;68933;49.726;9.226;2024-01-30T00:34:21;15.5;;15.5;14.8;;;;;;
79466;SPS30;68933;49.726;9.226;2024-01-30T00:36:34;13.2;;13.2;12.6;;;;;;
79466;SPS30;68933;49.726;9.226;2024-01-30T00:38:47;13.2;;13.2;12.6;;;;;;
79466;SPS30;68933;49.726;9.226;2024-01-30T00:41:00;13.2;;13.2;12.6;;;;;;
79466;SPS30;68933;49.726;9.226;2024-01-30T00:43:13;13.7;;13.7;13;;;;;;
79466;SPS30;68933;49.726;9.226;2024-01-30T00:45:26;13.7;;13.7;13;;;;;;
79466;SPS30;68933;49.726;9.226;2024-01-30T00:47:39;14.8;;14.8;14.1;;;;;;
79466;SPS30;68933;49.726;9.226;2024-01-30T00:49:52;14.8;;14.8;14.1;;;;;;
79466;SPS30;68933;49.726;9.226;2024-01-30T00:52:05;13.7;;13.7;13.1;;;;;;
79466;SPS30;68933;49.726;9.226;2024-01-30T00:54:18;13.7;;13.7;13.1;;;;;;
79466;SPS30;68933;49.726;9.226;2024-01-30T00:56:31;13.4;;13.4;12.7;;;;;;
79466;SPS30;68933;49.726;9.226;2024-01-30T00:58:44;13.4;;13.4;12.7;;;;;;
79466;SPS30;68933;49.726;9.226;2024-01-30T01:00:57;12.7;;12.7;12.1;;;;;;
79466;SPS30;68933;49.726;9.226;2024-01-30T01:03:10;12.7;;12.7;12.1;;;;;;
79466;SPS30;68933;49.726;9.226;2024-01-30T01:05:23;12.7;;12.7;12.1;;;;;;
79466;SPS30;68933;49.726;9.226;2024-01-30T01:07:36;13.2;;13.2;12.6;;;;;;
79466;SPS30;68933;49.726;9.226;2024-01-30T01:09:49;13.2;;13.2;12.6;;;;;;
79466;SPS30;68933;49.726;9.226;2024-01-30T01:12:02;12.9;;12.9;12.3;;;;;;
79466;SPS30;68933;49.726;9.226;2024-01-30T01:14:15;12.9;;12.9;12.3;;;;;;
79466;SPS30;68933;49.726;9.226;2024-01-30T01:16:28;13.7;;13.7;13;;;;;;
79466;SPS30;68933;49.726;9.226;2024-01-30T01:18:41;13.7;;13.7;13;;;;;;
79466;SPS30;68933;49.726;9.226;2024-01-30T01:20:54;13.7;;13.7;13.1;;;;;;
79466;SPS30;68933;49.726;9.226;2024-01-30T01:23:07;13.7;;13.7;13.1;;;;;;
79466;SPS30;68933;49.726;9.226;2024-01-30T01:25:20;13.8;;13.8;13.1;;;;;;
79466;SPS30;68933;49.726;9.226;2024-01-30T01:27:33;13.8;;13.8;13.1;;;;;;
79466;SPS30;68933;49.726;9.226;2024-01-30T01:29:46;13.6;;13.6;13;;;;;;
79466;SPS30;68933;49.726;9.226;2024-01-30T01:31:59;13.6;;13.6;13;;;;;;
79466;SPS30;68933;49.726;9.226;2024-01-30T01:34:12;13.6;;13.6;13;;;;;;
79466;SPS30;68933;49.726;9.226;2024-01-30T01:36:25;16.4;;16.4;15.6;;;;;;
79466;SPS30;68933;49.726;9.226;2024-01-30T01:38:38;16.4;;16.4;15.6;;;;;;
79466;SPS30;68933;49.726;9.226;2024-01-30T01:40:51;16.4;;16.4;15.6;;;;;;
79466;SPS30;68933;49.726;9.226;2024-01-30T01:43:04;20.6;;20.6;19.7;;;;;;
79466;SPS30;68933;49.726;9.226;2024-01-30T01:45:17;20.6;;20.6;19.7;;;;;;
79466;SPS30;68933;49.726;9.226;2024-01-30T01:47:30;16.6;;16.6;15.8;;;;;;
79466;SPS30;68933;49.726;9.226;2024-01-30T01:49:43;16.6;;16.6;15.8;;;;;;
79466;SPS30;68933;49.726;9.226;2024-01-30T01:51:56;16.4;;16.4;15.7;;;;;;
79466;SPS30;68933;49.726;9.226;2024-01-30T01:54:09;16.4;;16.4;15.7;;;;;;
79466;SPS30;68933;49.726;9.226;2024-01-30T01:56:22;18.5;;18.5;17.6;;;;;;
79466;SPS30;68933;49.726;9.226;2024-01-30T01:58:35;18.5;;18.5;17.6;;;;;;
79466;SPS30;68933;49.726;9.226;2024-01-30T02:00:48;18.5;;18.5;17.6;;;;;;
79466;SPS30;68933;49.726;9.226;2024-01-30T02:03:01;35;;35;33.4;;;;;;
79466;SPS30;68933;49.726;9.226;2024-01-30T02:05:14;35;;35;33.4;;;;;;
79466;SPS30;68933;49.726;9.226;2024-01-30T02:07:27;19.7;;19.7;18.8;;;;;;
79466;SPS30;68933;49.726;9.226;2024-01-30T02:09:40;19.7;;19.7;18.8;;;;;;
79466;SPS30;68933;49.726;9.226;2024-01-30T02:11:53;18.8;;18.8;18;;;;;;
79466;SPS30;68933;49.726;9.226;2024-01-30T02:14:06;18.8;;18.8;18;;;;;;
79466;SPS30;68933;49.726;9.226;2024-01-30T02:16:19;18.8;;18.8;18;;;;;;
79466;SPS30;68933;49.726;9.226;2024-01-30T02:18:32;15.8;;15.8;15.1;;;;;;
79466;SPS30;68933;49.726;9.226;2024-01-30T02:20:45;15.8;;15.8;15.1;;;;;;
79466;SPS30;68933;49.726;9.226;2024-01-30T02:22:58;19.8;;19.8;18.8;;;;;;
79466;SPS30;68933;49.726;9.226;2024-01-30T02:25:11;19.8;;19.8;18.8;;;;;;
79466;SPS30;68933;49.726;9.226;2024-01-30T02:27:24;19.8;;19.8;18.8;;;;;;
79466;SPS30;68933;49.726;9.226;2024-01-30T02:29:37;18;;18;17.1;;;;;;
79466;SPS30;68933;49.726;9.226;2024-01-30T02:31:50;18;;18;17.1;;;;;;
79466;SPS30;68933;49.726;9.226;2024-01-30T02:34:03;18.1;;18.1;17.3;;;;;;
79466;SPS30;68933;49.726;9.226;2024-01-30T02:36:16;18.1;;18.1;17.3;;;;;;
79466;SPS30;68933;49.726;9.226;2024-01-30T02:38:29;16.1;;16.1;15.4;;;;;;
79466;SPS30;68933;49.726;9.226;2024-01-30T02:40:42;16.1;;16.1;15.4;;;;;;
79466;SPS30;68933;49.726;9.226;2024-01-30T02:42:55;15.1;;15.1;14.4;;;;;;
79466;SPS30;68933;49.726;9.226;2024-01-30T02:45:09;15.1;;15.1;14.4;;;;;;
79466;SPS30;68933;49.726;9.226;2024-01-30T02:47:21;15.1;;15.1;14.4;;;;;;
79466;SPS30;68933;49.726;9.226;2024-01-30T02:49:34;13.9;;13.9;13.3;;;;;;
79466;SPS30;68933;49.726;9.226;2024-01-30T02:51:47;13.9;;13.9;13.3;;;;;;
79466;SPS30;68933;49.726;9.226;2024-01-30T02:54:00;13.9;;13.9;13.3;;;;;;
79466;SPS30;68933;49.726;9.226;2024-01-30T02:56:13;13.9;;13.9;13.3;;;;;;
79466;SPS30;68933;49.726;9.226;2024-01-30T02:58:26;16.9;;16.9;16.1;;;;;;
79466;SPS30;68933;49.726;9.226;2024-01-30T03:00:39;16.9;;16.9;16.1;;;;;;
79466;SPS30;68933;49.726;9.226;2024-01-30T03:02:52;16.9;;16.9;16.1;;;;;;
79466;SPS30;68933;49.726;9.226;2024-01-30T03:05:05;25.4;;25.4;24.3;;;;;;
79466;SPS30;68933;49.726;9.226;2024-01-30T03:07:18;25.4;;25.4;24.3;;;;;;
79466;SPS30;68933;49.726;9.226;2024-01-30T03:09:31;16.1;;16.1;15.4;;;;;;
79466;SPS30;68933;49.726;9.226;2024-01-30T03:11:44;16.1;;16.1;15.4;;;;;;
79466;SPS30;68933;49.726;9.226;2024-01-30T03:13:57;15.4;;15.4;14.7;;;;;;
79466;SPS30;68933;49.726;9.226;2024-01-30T03:16:10;15.4;;15.4;14.7;;;;;;
79466;SPS30;68933;49.726;9.226;2024-01-30T03:18:23;15.4;;15.4;14.7;;;;;;
79466;SPS30;68933;49.726;9.226;2024-01-30T03:20:36;16.8;;16.8;16.1;;;;;;
79466;SPS30;68933;49.726;9.226;2024-01-30T03:22:49;16.8;;16.8;16.1;;;;;;
79466;SPS30;68933;49.726;9.226;2024-01-30T03:25:02;15;;15;14.3;;;;;;
79466;SPS30;68933;49.726;9.226;2024-01-30T03:27:15;15;;15;14.3;;;;;;
79466;SPS30;68933;49.726;9.226;2024-01-30T03:29:28;15;;15;14.3;;;;;;
79466;SPS30;68933;49.726;9.226;2024-01-30T03:31:41;15;;15;14.3;;;;;;
79466;SPS30;68933;49.726;9.226;2024-01-30T03:33:54;18.5;;18.5;17.7;;;;;;
79466;SPS30;68933;49.726;9.226;2024-01-30T03:36:07;18.5;;18.5;17.7;;;;;;
79466;SPS30;68933;49.726;9.226;2024-01-30T03:38:20;18.5;;18.5;17.7;;;;;;
79466;SPS30;68933;49.726;9.226;2024-01-30T03:40:33;19.3;;19.3;18.4;;;;;;
79466;SPS30;68933;49.726;9.226;2024-01-30T03:42:46;19.3;;19.3;18.4;;;;;;
79466;SPS30;68933;49.726;9.226;2024-01-30T03:44:59;18.5;;18.5;17.7;;;;;;
79466;SPS30;68933;49.726;9.226;2024-01-30T03:47:12;18.5;;18.5;17.7;;;;;;
79466;SPS30;68933;49.726;9.226;2024-01-30T03:49:25;17.3;;17.3;16.5;;;;;;
79466;SPS30;68933;49.726;9.226;2024-01-30T03:51:38;17.3;;17.3;16.5;;;;;;
79466;SPS30;68933;49.726;9.226;2024-01-30T03:53:51;16.7;;16.7;16;;;;;;
79466;SPS30;68933;49.726;9.226;2024-01-30T03:56:04;16.7;;16.7;16;;;;;;
79466;SPS30;68933;49.726;9.226;2024-01-30T03:58:17;15.7;;15.7;14.9;;;;;;
79466;SPS30;68933;49.726;9.226;2024-01-30T04:00:30;15.7;;15.7;14.9;;;;;;
79466;SPS30;68933;49.726;9.226;2024-01-30T04:02:43;15.7;;15.7;14.9;;;;;;
79466;SPS30;68933;49.726;9.226;2024-01-30T04:04:56;17.1;;17.1;16.3;;;;;;
79466;SPS30;68933;49.726;9.226;2024-01-30T04:07:09;17.1;;17.1;16.3;;;;;;
79466;SPS30;68933;49.726;9.226;2024-01-30T04:09:22;17.1;;17.1;16.3;;;;;;
79466;SPS30;68933;49.726;9.226;2024-01-30T04:11:35;17.1;;17.1;16.3;;;;;;
79466;SPS30;68933;49.726;9.226;2024-01-30T04:13:48;14.9;;14.9;14.2;;;;;;
79466;SPS30;68933;49.726;9.226;2024-01-30T04:16:01;14.9;;14.9;14.2;;;;;;
79466;SPS30;68933;49.726;9.226;2024-01-30T04:18:14;15.6;;15.6;14.9;;;;;;
79466;SPS30;68933;49.726;9.226;2024-01-30T04:20:27;15.6;;15.6;14.9;;;;;;
79466;SPS30;68933;49.726;9.226;2024-01-30T04:22:40;15.6;;15.6;14.9;;;;;;
79466;SPS30;68933;49.726;9.226;2024-01-30T04:24:53;16.1;;16.1;15.4;;;;;;
79466;SPS30;68933;49.726;9.226;2024-01-30T04:27:06;16.1;;16.1;15.4;;;;;;
79466;SPS30;68933;49.726;9.226;2024-01-30T04:29:19;19;;19;18.1;;;;;;
79466;SPS30;68933;49.726;9.226;2024-01-30T04:31:32;19;;19;18.1;;;;;;
79466;SPS30;68933;49.726;9.226;2024-01-30T04:33:45;18.4;;18.4;17.5;;;;;;
79466;SPS30;68933;49.726;9.226;2024-01-30T04:35:58;18.4;;18.4;17.5;;;;;;
79466;SPS30;68933;49.726;9.226;2024-01-30T04:38:11;18.4;;18.4;17.5;;;;;;
79466;SPS30;68933;49.726;9.226;2024-01-30T04:40:24;17.1;;17.1;16.3;;;;;;
79466;SPS30;68933;49.726;9.226;2024-01-30T04:42:37;17.1;;17.1;16.3;;;;;;
79466;SPS30;68933;49.726;9.226;2024-01-30T04:44:50;18.4;;18.4;17.6;;;;;;
79466;SPS30;68933;49.726;9.226;2024-01-30T04:47:03;18.4;;18.4;17.6;;;;;;
79466;SPS30;68933;49.726;9.226;2024-01-30T04:49:16;18.4;;18.4;17.6;;;;;;
79466;SPS30;68933;49.726;9.226;2024-01-30T04:51:29;17.1;;17.1;16.3;;;;;;
79466;SPS30;68933;49.726;9.226;2024-01-30T04:53:42;17.1;;17.1;16.3;;;;;;
79466;SPS30;68933;49.726;9.226;2024-01-30T04:55:55;17.9;;17.9;17.1;;;;;;
79466;SPS30;68933;49.726;9.226;2024-01-30T04:58:08;17.9;;17.9;17.1;;;;;;
79466;SPS30;68933;49.726;9.226;2024-01-30T05:00:21;17.9;;17.9;17.1;;;;;;
79466;SPS30;68933;49.726;9.226;2024-01-30T05:02:34;17.3;;17.3;16.5;;;;;;
79466;SPS30;68933;49.726;9.226;2024-01-30T05:04:47;17.3;;17.3;16.5;;;;;;
79466;SPS30;68933;49.726;9.226;2024-01-30T05:07:00;18.2;;18.2;17.3;;;;;;
79466;SPS30;68933;49.726;9.226;2024-01-30T05:09:13;18.2;;18.2;17.3;;;;;;
79466;SPS30;68933;49.726;9.226;2024-01-30T05:11:26;17.1;;17.1;16.3;;;;;;
79466;SPS30;68933;49.726;9.226;2024-01-30T05:13:39;17.1;;17.1;16.3;;;;;;
79466;SPS30;68933;49.726;9.226;2024-01-30T05:15:52;17.1;;17.1;16.3;;;;;;
79466;SPS30;68933;49.726;9.226;2024-01-30T05:18:05;17.6;;17.6;16.8;;;;;;
79466;SPS30;68933;49.726;9.226;2024-01-30T05:20:19;17.6;;17.6;16.8;;;;;;
79466;SPS30;68933;49.726;9.226;2024-01-30T05:22:31;17;;17;16.2;;;;;;
79466;SPS30;68933;49.726;9.226;2024-01-30T05:24:44;17;;17;16.2;;;;;;
79466;SPS30;68933;49.726;9.226;2024-01-30T05:26:57;15.8;;15.8;15.1;;;;;;
79466;SPS30;68933;49.726;9.226;2024-01-30T05:29:10;15.8;;15.8;15.1;;;;;;
79466;SPS30;68933;49.726;9.226;2024-01-30T05:31:23;15.8;;15.8;15.1;;;;;;
79466;SPS30;68933;49.726;9.226;2024-01-30T05:33:36;20.2;;20.2;19.3;;;;;;
79466;SPS30;68933;49.726;9.226;2024-01-30T05:35:49;20.2;;20.2;19.3;;;;;;
79466;SPS30;68933;49.726;9.226;2024-01-30T05:38:02;18.3;;18.3;17.5;;;;;;
79466;SPS30;68933;49.726;9.226;2024-01-30T05:40:15;18.3;;18.3;17.5;;;;;;
79466;SPS30;68933;49.726;9.226;2024-01-30T05:42:28;18.8;;18.8;18;;;;;;
79466;SPS30;68933;49.726;9.226;2024-01-30T05:44:41;18.8;;18.8;18;;;;;;
79466;SPS30;68933;49.726;9.226;2024-01-30T05:46:54;18.8;;18.8;18;;;;;;
79466;SPS30;68933;49.726;9.226;2024-01-30T05:49:07;22;;22;21;;;;;;
79466;SPS30;68933;49.726;9.226;2024-01-30T05:51:20;22;;22;21;;;;;;
79466;SPS30;68933;49.726;9.226;2024-01-30T05:53:33;20.5;;20.5;19.5;;;;;;
79466;SPS30;68933;49.726;9.226;2024-01-30T05:55:46;20.5;;20.5;19.5;;;;;;
79466;SPS30;68933;49.726;9.226;2024-01-30T05:57:59;17.6;;17.6;16.8;;;;;;
79466;SPS30;68933;49.726;9.226;2024-01-30T06:00:12;17.6;;17.6;16.8;;;;;;
79466;SPS30;68933;49.726;9.226;2024-01-30T06:02:25;18.8;;18.8;18;;;;;;
79466;SPS30;68933;49.726;9.226;2024-01-30T06:04:38;18.8;;18.8;18;;;;;;
79466;SPS30;68933;49.726;9.226;2024-01-30T06:06:51;18.8;;18.8;18;;;;;;
79466;SPS30;68933;49.726;9.226;2024-01-30T06:09:04;18.7;;18.7;17.9;;;;;;
79466;SPS30;68933;49.726;9.226;2024-01-30T06:11:17;18.7;;18.7;17.9;;;;;;
79466;SPS30;68933;49.726;9.226;2024-01-30T06:13:31;18.8;;18.8;17.9;;;;;;
79466;SPS30;68933;49.726;9.226;2024-01-30T06:15:43;18.8;;18.8;17.9;;;;;;
79466;SPS30;68933;49.726;9.226;2024-01-30T06:17:56;19.3;;19.3;18.4;;;;;;
79466;SPS30;68933;49.726;9.226;2024-01-30T06:20:09;19.3;;19.3;18.4;;;;;;
79466;SPS30;68933;49.726;9.226;2024-01-30T06:22:22;19.3;;19.3;18.4;;;;;;
79466;SPS30;68933;49.726;9.226;2024-01-30T06:24:35;19.9;;19.9;18.9;;;;;;
79466;SPS30;68933;49.726;9.226;2024-01-30T06:26:48;19.9;;19.9;18.9;;;;;;
79466;SPS30;68933;49.726;9.226;2024-01-30T06:29:01;19.3;;19.3;18.4;;;;;;
79466;SPS30;68933;49.726;9.226;2024-01-30T06:31:14;19.3;;19.3;18.4;;;;;;
79466;SPS30;68933;49.726;9.226;2024-01-30T06:33:27;18.1;;18.1;17.2;;;;;;
79466;SPS30;68933;49.726;9.226;2024-01-30T06:35:40;18.1;;18.1;17.2;;;;;;
79466;SPS30;68933;49.726;9.226;2024-01-30T06:37:53;20.4;;20.4;19.4;;;;;;
79466;SPS30;68933;49.726;9.226;2024-01-30T06:40:06;20.4;;20.4;19.4;;;;;;
79466;SPS30;68933;49.726;9.226;2024-01-30T06:42:19;19;;19;18.1;;;;;;
79466;SPS30;68933;49.726;9.226;2024-01-30T06:44:32;19;;19;18.1;;;;;;
79466;SPS30;68933;49.726;9.226;2024-01-30T06:46:45;19;;19;18.1;;;;;;
79466;SPS30;68933;49.726;9.226;2024-01-30T06:48:58;19.7;;19.7;18.8;;;;;;
79466;SPS30;68933;49.726;9.226;2024-01-30T06:51:11;19.7;;19.7;18.8;;;;;;
79466;SPS30;68933;49.726;9.226;2024-01-30T06:53:24;21.1;;21;20.1;;;;;;
79466;SPS30;68933;49.726;9.226;2024-01-30T06:55:37;21.1;;21;20.1;;;;;;
79466;SPS30;68933;49.726;9.226;2024-01-30T06:57:50;19.9;;19.9;18.9;;;;;;
79466;SPS30;68933;49.726;9.226;2024-01-30T07:00:03;19.9;;19.9;18.9;;;;;;
79466;SPS30;68933;49.726;9.226;2024-01-30T07:02:16;32.6;;32.6;31.1;;;;;;
79466;SPS30;68933;49.726;9.226;2024-01-30T07:04:29;32.6;;32.6;31.1;;;;;;
79466;SPS30;68933;49.726;9.226;2024-01-30T07:06:42;32.6;;32.6;31.1;;;;;;
79466;SPS30;68933;49.726;9.226;2024-01-30T07:08:55;25.6;;25.6;24.4;;;;;;
79466;SPS30;68933;49.726;9.226;2024-01-30T07:11:08;25.6;;25.6;24.4;;;;;;
79466;SPS30;68933;49.726;9.226;2024-01-30T07:13:21;22.4;;22.4;21.4;;;;;;
79466;SPS30;68933;49.726;9.226;2024-01-30T07:15:34;22.4;;22.4;21.4;;;;;;
79466;SPS30;68933;49.726;9.226;2024-01-30T07:17:47;23.3;;23.3;22.2;;;;;;
79466;SPS30;68933;49.726;9.226;2024-01-30T07:20:00;23.3;;23.3;22.2;;;;;;
79466;SPS30;68933;49.726;9.226;2024-01-30T07:22:13;25;;25;23.8;;;;;;
79466;SPS30;68933;49.726;9.226;2024-01-30T07:24:26;25;;25;23.8;;;;;;
79466;SPS30;68933;49.726;9.226;2024-01-30T07:26:39;24;;24;22.9;;;;;;
79466;SPS30;68933;49.726;9.226;2024-01-30T07:28:52;24;;24;22.9;;;;;;
79466;SPS30;68933;49.726;9.226;2024-01-30T07:31:05;23.3;;23.3;22.2;;;;;;
79466;SPS30;68933;49.726;9.226;2024-01-30T07:33:18;23.3;;23.3;22.2;;;;;;
79466;SPS30;68933;49.726;9.226;2024-01-30T07:35:31;23.3;;23.3;22.2;;;;;;
79466;SPS30;68933;49.726;9.226;2024-01-30T07:37:44;21.1;;21.1;20.1;;;;;;
79466;SPS30;68933;49.726;9.226;2024-01-30T07:39:57;21.1;;21.1;20.1;;;;;;
79466;SPS30;68933;49.726;9.226;2024-01-30T07:42:10;21.1;;21.1;20.1;;;;;;
79466;SPS30;68933;49.726;9.226;2024-01-30T07:44:23;22.4;;22.4;21.4;;;;;;
79466;SPS30;68933;49.726;9.226;2024-01-30T07:46:36;22.4;;22.4;21.4;;;;;;
79466;SPS30;68933;49.726;9.226;2024-01-30T07:48:49;22.7;;22.7;21.6;;;;;;
79466;SPS30;68933;49.726;9.226;2024-01-30T07:51:02;22.7;;22.7;21.6;;;;;;
79466;SPS30;68933;49.726;9.226;2024-01-30T07:53:15;28.5;;28.5;27.1;;;;;;
79466;SPS30;68933;49.726;9.226;2024-01-30T07:55:28;28.5;;28.5;27.1;;;;;;
79466;SPS30;68933;49.726;9.226;2024-01-30T07:57:41;28.5;;28.5;27.1;;;;;;
79466;SPS30;68933;49.726;9.226;2024-01-30T07:59:54;24.6;;24.6;23.4;;;;;;
79466;SPS30;68933;49.726;9.226;2024-01-30T08:02:07;24.6;;24.6;23.4;;;;;;
79466;SPS30;68933;49.726;9.226;2024-01-30T08:04:20;24.6;;24.6;23.4;;;;;;
79466;SPS30;68933;49.726;9.226;2024-01-30T08:06:33;24.6;;24.6;23.4;;;;;;
79466;SPS30;68933;49.726;9.226;2024-01-30T08:08:46;24.6;;24.6;23.4;;;;;;
79466;SPS30;68933;49.726;9.226;2024-01-30T08:10:59;24;;24;22.9;;;;;;
79466;SPS30;68933;49.726;9.226;2024-01-30T08:13:12;24;;24;22.9;;;;;;
79466;SPS30;68933;49.726;9.226;2024-01-30T08:15:25;24.9;;24.9;23.8;;;;;;
79466;SPS30;68933;49.726;9.226;2024-01-30T08:17:38;24.9;;24.9;23.8;;;;;;
79466;SPS30;68933;49.726;9.226;2024-01-30T08:19:51;23.9;;23.9;22.8;;;;;;
79466;SPS30;68933;49.726;9.226;2024-01-30T08:22:04;23.9;;23.9;22.8;;;;;;
79466;SPS30;68933;49.726;9.226;2024-01-30T08:24:17;23.9;;23.9;22.8;;;;;;
79466;SPS30;68933;49.726;9.226;2024-01-30T08:26:30;27.2;;27.2;26;;;;;;
79466;SPS30;68933;49.726;9.226;2024-01-30T08:28:43;27.2;;27.2;26;;;;;;
79466;SPS30;68933;49.726;9.226;2024-01-30T08:30:56;25.8;;25.7;24.4;;;;;;
79466;SPS30;68933;49.726;9.226;2024-01-30T08:33:09;25.8;;25.7;24.4;;;;;;
79466;SPS30;68933;49.726;9.226;2024-01-30T08:35:22;27.4;;27.4;26.1;;;;;;
79466;SPS30;68933;49.726;9.226;2024-01-30T08:37:35;27.4;;27.4;26.1;;;;;;
79466;SPS30;68933;49.726;9.226;2024-01-30T08:39:48;27.4;;27.4;26.1;;;;;;
79466;SPS30;68933;49.726;9.226;2024-01-30T08:42:01;31.3;;31.3;29.9;;;;;;
79466;SPS30;68933;49.726;9.226;2024-01-30T08:44:14;31.3;;31.3;29.9;;;;;;
79466;SPS30;68933;49.726;9.226;2024-01-30T08:46:27;41.6;;41.6;39.6;;;;;;
79466;SPS30;68933;49.726;9.226;2024-01-30T08:48:40;41.6;;41.6;39.6;;;;;;
79466;SPS30;68933;49.726;9.226;2024-01-30T08:50:53;32.7;;32.6;31.1;;;;;;
79466;SPS30;68933;49.726;9.226;2024-01-30T08:53:06;32.7;;32.6;31.1;;;;;;
79466;SPS30;68933;49.726;9.226;2024-01-30T08:55:19;32.7;;32.6;31.1;;;;;;
79466;SPS30;68933;49.726;9.226;2024-01-30T08:57:32;29.5;;29.5;28.1;;;;;;
79466;SPS30;68933;49.726;9.226;2024-01-30T08:59:45;29.5;;29.5;28.1;;;;;;
79466;SPS30;68933;49.726;9.226;2024-01-30T09:01:58;25.4;;25.4;24.2;;;;;;
79466;SPS30;68933;49.726;9.226;2024-01-30T09:04:11;25.4;;25.4;24.2;;;;;;
79466;SPS30;68933;49.726;9.226;2024-01-30T09:06:24;31.2;;31.2;29.7;;;;;;
79466;SPS30;68933;49.726;9.226;2024-01-30T09:08:37;31.2;;31.2;29.7;;;;;;
79466;SPS30;68933;49.726;9.226;2024-01-30T09:10:50;31.2;;31.2;29.7;;;;;;
79466;SPS30;68933;49.726;9.226;2024-01-30T09:13:03;33.2;;33.2;31.7;;;;;;
79466;SPS30;68933;49.726;9.226;2024-01-30T09:15:16;33.2;;33.2;31.7;;;;;;
79466;SPS30;68933;49.726;9.226;2024-01-30T09:17:29;30.5;;30.5;29.1;;;;;;
79466;SPS30;68933;49.726;9.226;2024-01-30T09:19:42;30.5;;30.5;29.1;;;;;;
79466;SPS30;68933;49.726;9.226;2024-01-30T09:21:55;27.8;;27.8;26.5;;;;;;
79466;SPS30;68933;49.726;9.226;2024-01-30T09:24:08;27.8;;27.8;26.5;;;;;;
79466;SPS30;68933;49.726;9.226;2024-01-30T09:26:21;27.8;;27.8;26.5;;;;;;
79466;SPS30;68933;49.726;9.226;2024-01-30T09:28:34;28.4;;28.4;27.1;;;;;;
79466;SPS30;68933;49.726;9.226;2024-01-30T09:30:47;28.4;;28.4;27.1;;;;;;
79466;SPS30;68933;49.726;9.226;2024-01-30T09:33:00;25.9;;25.9;24.7;;;;;;
79466;SPS30;68933;49.726;9.226;2024-01-30T09:35:13;25.9;;25.9;24.7;;;;;;
79466;SPS30;68933;49.726;9.226;2024-01-30T09:37:26;28;;28;26.7;;;;;;
79466;SPS30;68933;49.726;9.226;2024-01-30T09:39:39;28;;28;26.7;;;;;;
79466;SPS30;68933;49.726;9.226;2024-01-30T09:41:54;25.2;;25.2;24.1;;;;;;
79466;SPS30;68933;49.726;9.226;2024-01-30T09:44:05;25.2;;25.2;24.1;;;;;;
79466;SPS30;68933;49.726;9.226;2024-01-30T09:46:18;25.2;;25.2;24.1;;;;;;
79466;SPS30;68933;49.726;9.226;2024-01-30T09:48:31;64.3;;61.6;56.7;;;;;;
79466;SPS30;68933;49.726;9.226;2024-01-30T09:50:44;64.3;;61.6;56.7;;;;;;
79466;SPS30;68933;49.726;9.226;2024-01-30T09:52:57;63.1;;62;58.4;;;;;;
79466;SPS30;68933;49.726;9.226;2024-01-30T09:55:10;63.1;;62;58.4;;;;;;
79466;SPS30;68933;49.726;9.226;2024-01-30T09:57:23;22.7;;22.7;21.6;;;;;;
79466;SPS30;68933;49.726;9.226;2024-01-30T09:59:36;22.7;;22.7;21.6;;;;;;
79466;SPS30;68933;49.726;9.226;2024-01-30T10:01:49;22.9;;22.9;21.9;;;;;;
79466;SPS30;68933;49.726;9.226;2024-01-30T10:04:02;22.9;;22.9;21.9;;;;;;
79466;SPS30;68933;49.726;9.226;2024-01-30T10:06:15;38.1;;38;36.1;;;;;;
79466;SPS30;68933;49.726;9.226;2024-01-30T10:08:28;38.1;;38;36.1;;;;;;
79466;SPS30;68933;49.726;9.226;2024-01-30T10:10:41;38.1;;38;36.1;;;;;;
79466;SPS30;68933;49.726;9.226;2024-01-30T10:12:54;31.4;;31.4;30;;;;;;
79466;SPS30;68933;49.726;9.226;2024-01-30T10:15:07;31.4;;31.4;30;;;;;;
79466;SPS30;68933;49.726;9.226;2024-01-30T10:17:20;29.7;;29.7;28.3;;;;;;
79466;SPS30;68933;49.726;9.226;2024-01-30T10:19:33;29.7;;29.7;28.3;;;;;;
79466;SPS30;68933;49.726;9.226;2024-01-30T10:21:46;28.4;;28.4;27.1;;;;;;
79466;SPS30;68933;49.726;9.226;2024-01-30T10:23:59;28.4;;28.4;27.1;;;;;;
79466;SPS30;68933;49.726;9.226;2024-01-30T10:26:12;42.5;;42.5;40.5;;;;;;
79466;SPS30;68933;49.726;9.226;2024-01-30T10:28:26;42.5;;42.5;40.5;;;;;;
79466;SPS30;68933;49.726;9.226;2024-01-30T10:30:38;30.5;;30.5;29.1;;;;;;
79466;SPS30;68933;49.726;9.226;2024-01-30T10:32:51;30.5;;30.5;29.1;;;;;;
79466;SPS30;68933;49.726;9.226;2024-01-30T10:35:04;28.5;;28.5;27.2;;;;;;
79466;SPS30;68933;49.726;9.226;2024-01-30T10:37:17;28.5;;28.5;27.2;;;;;;
79466;SPS30;68933;49.726;9.226;2024-01-30T10:39:30;28.5;;28.5;27.2;;;;;;
79466;SPS30;68933;49.726;9.226;2024-01-30T10:41:43;26.7;;26.7;25.5;;;;;;
79466;SPS30;68933;49.726;9.226;2024-01-30T10:43:58;26.7;;26.7;25.5;;;;;;
79466;SPS30;68933;49.726;9.226;2024-01-30T10:46:10;26.2;;26.2;25;;;;;;
79466;SPS30;68933;49.726;9.226;2024-01-30T10:48:22;26.2;;26.2;25;;;;;;
79466;SPS30;68933;49.726;9.226;2024-01-30T10:50:35;26.2;;26.2;25;;;;;;
79466;SPS30;68933;49.726;9.226;2024-01-30T10:52:48;24.8;;24.8;23.7;;;;;;
79466;SPS30;68933;49.726;9.226;2024-01-30T10:55:01;24.8;;24.8;23.7;;;;;;
79466;SPS30;68933;49.726;9.226;2024-01-30T10:57:14;22.6;;22.6;21.5;;;;;;
79466;SPS30;68933;49.726;9.226;2024-01-30T10:59:27;22.6;;22.6;21.5;;;;;;
79466;SPS30;68933;49.726;9.226;2024-01-30T11:01:40;22.6;;22.6;21.5;;;;;;
79466;SPS30;68933;49.726;9.226;2024-01-30T11:03:53;23;;23;21.9;;;;;;
79466;SPS30;68933;49.726;9.226;2024-01-30T11:06:10;23;;23;21.9;;;;;;
79466;SPS30;68933;49.726;9.226;2024-01-30T11:08:22;23.5;;23.5;22.4;;;;;;
79466;SPS30;68933;49.726;9.226;2024-01-30T11:10:32;23.5;;23.5;22.4;;;;;;
79466;SPS30;68933;49.726;9.226;2024-01-30T11:12:45;25.3;;25.3;24.1;;;;;;
79466;SPS30;68933;49.726;9.226;2024-01-30T11:15:02;25.3;;25.3;24.1;;;;;;
79466;SPS30;68933;49.726;9.226;2024-01-30T11:17:11;25.3;;25.3;24.1;;;;;;
79466;SPS30;68933;49.726;9.226;2024-01-30T11:19:24;26.9;;26.9;25.6;;;;;;
79466;SPS30;68933;49.726;9.226;2024-01-30T11:21:40;26.9;;26.9;25.6;;;;;;
79466;SPS30;68933;49.726;9.226;2024-01-30T11:23:50;39.1;;39;37.2;;;;;;
79466;SPS30;68933;49.726;9.226;2024-01-30T11:26:03;39.1;;39;37.2;;;;;;
79466;SPS30;68933;49.726;9.226;2024-01-30T11:28:16;41.1;;40.5;38.3;;;;;;
79466;SPS30;68933;49.726;9.226;2024-01-30T11:30:29;41.1;;40.5;38.3;;;;;;
79466;SPS30;68933;49.726;9.226;2024-01-30T11:32:42;41.1;;40.5;38.3;;;;;;
79466;SPS30;68933;49.726;9.226;2024-01-30T11:34:55;27.5;;27.5;26.2;;;;;;
79466;SPS30;68933;49.726;9.226;2024-01-30T11:37:09;27.5;;27.5;26.2;;;;;;
79466;SPS30;68933;49.726;9.226;2024-01-30T11:39:21;25.8;;25.8;24.6;;;;;;
79466;SPS30;68933;49.726;9.226;2024-01-30T11:41:34;25.8;;25.8;24.6;;;;;;
79466;SPS30;68933;49.726;9.226;2024-01-30T11:43:51;23.7;;23.7;22.6;;;;;;
79466;SPS30;68933;49.726;9.226;2024-01-30T11:46:00;23.7;;23.7;22.6;;;;;;
79466;SPS30;68933;49.726;9.226;2024-01-30T11:48:13;23.7;;23.7;22.6;;;;;;
79466;SPS30;68933;49.726;9.226;2024-01-30T11:50:26;26.9;;26.9;25.7;;;;;;
79466;SPS30;68933;49.726;9.226;2024-01-30T11:52:39;26.9;;26.9;25.7;;;;;;
79466;SPS30;68933;49.726;9.226;2024-01-30T11:54:52;24.8;;24.8;23.6;;;;;;
79466;SPS30;68933;49.726;9.226;2024-01-30T11:57:05;24.8;;24.8;23.6;;;;;;
79466;SPS30;68933;49.726;9.226;2024-01-30T11:59:18;25.9;;25.9;24.7;;;;;;
79466;SPS30;68933;49.726;9.226;2024-01-30T12:01:31;25.9;;25.9;24.7;;;;;;
79466;SPS30;68933;49.726;9.226;2024-01-30T12:03:48;25.9;;25.9;24.7;;;;;;
79466;SPS30;68933;49.726;9.226;2024-01-30T12:05:58;24.5;;24.5;23.3;;;;;;
79466;SPS30;68933;49.726;9.226;2024-01-30T12:08:14;24.5;;24.5;23.3;;;;;;
79466;SPS30;68933;49.726;9.226;2024-01-30T12:10:23;24.2;;24.2;23.1;;;;;;